createdAt,value
2022-10-09T00:03:02.477Z,2.67
2022-10-09T00:07:03.931Z,2.72
2022-10-09T00:11:07.114Z,2.78
2022-10-09T00:15:08.879Z,2.38
2022-10-09T00:19:10.480Z,3.33
2022-10-09T00:23:14.861Z,3.17
2022-10-09T00:27:16.573Z,3.00
2022-10-09T00:31:18.690Z,3.15
2022-10-09T00:35:21.001Z,3.72
2022-10-09T00:39:22.616Z,4.35
2022-10-09T00:43:44.579Z,3.72
2022-10-09T00:47:48.343Z,3.40
2022-10-09T00:51:50.395Z,3.60
2022-10-09T00:55:52.591Z,5.05
2022-10-09T00:59:54.039Z,4.22
2022-10-09T01:03:55.528Z,3.97
2022-10-09T01:08:08.065Z,4.13
2022-10-09T01:12:15.279Z,4.90
2022-10-09T01:16:24.181Z,4.88
2022-10-09T01:20:31.487Z,4.45
2022-10-09T01:24:52.083Z,4.57
2022-10-09T01:28:59.280Z,5.45
2022-10-09T01:33:01.312Z,5.13
2022-10-09T01:37:03.107Z,5.25
2022-10-09T01:41:06.447Z,4.45
2022-10-09T01:45:08.590Z,5.03
2022-10-09T01:49:22.432Z,5.65
2022-10-09T01:53:24.928Z,4.95
2022-10-09T01:57:38.370Z,5.07
2022-10-09T02:01:43.303Z,4.75
2022-10-09T02:05:46.590Z,6.50
2022-10-09T02:09:48.598Z,5.70
2022-10-09T02:13:52.374Z,5.60
2022-10-09T02:17:56.267Z,5.90
2022-10-09T02:22:17.923Z,5.60
2022-10-09T02:26:19.634Z,4.93
2022-10-09T02:30:22.133Z,5.65
2022-10-09T02:34:24.180Z,5.38
2022-10-09T02:38:25.696Z,5.25
2022-10-09T02:42:27.151Z,6.15
2022-10-09T02:46:29.756Z,5.55
2022-10-09T02:50:31.254Z,5.80
2022-10-09T02:54:33.163Z,5.93
2022-10-09T02:58:36.010Z,5.30
2022-10-09T03:02:37.528Z,6.55
2022-10-09T03:06:39.372Z,6.15
2022-10-09T03:10:41.522Z,5.15
2022-10-09T03:14:43.280Z,5.10
2022-10-09T03:18:45.999Z,5.45
2022-10-09T03:22:47.869Z,5.00
2022-10-09T03:26:49.760Z,4.90
2022-10-09T03:30:51.453Z,5.07
2022-10-09T03:34:52.885Z,5.07
2022-10-09T03:38:54.385Z,5.60
2022-10-09T03:42:56.185Z,5.15
2022-10-09T03:46:57.954Z,4.90
2022-10-09T03:50:59.596Z,4.95
2022-10-09T03:55:01.466Z,5.07
2022-10-09T03:59:05.515Z,6.85
2022-10-09T04:03:07.029Z,5.65
2022-10-09T04:07:08.578Z,6.07
2022-10-09T04:11:10.203Z,5.60
2022-10-09T04:15:11.867Z,4.95
2022-10-09T04:19:13.456Z,4.35
2022-10-09T04:23:14.914Z,4.65
2022-10-09T04:27:16.472Z,5.32
2022-10-09T04:31:18.094Z,5.28
2022-10-09T04:35:19.932Z,5.13
2022-10-09T04:39:21.751Z,5.28
2022-10-09T04:43:23.186Z,4.40
2022-10-09T04:47:25.139Z,4.60
2022-10-09T04:51:27.152Z,4.32
2022-10-09T04:55:28.620Z,4.20
2022-10-09T04:59:30.384Z,5.57
2022-10-09T05:03:32.288Z,4.93
2022-10-09T05:07:33.925Z,4.40
2022-10-09T05:11:38.165Z,5.10
2022-10-09T05:15:43.143Z,5.20
2022-10-09T05:19:44.728Z,4.50
2022-10-09T05:23:46.334Z,5.40
2022-10-09T05:27:47.949Z,5.32
2022-10-09T05:31:49.898Z,5.30
2022-10-09T05:35:57.380Z,5.38
2022-10-09T05:39:59.977Z,5.60
2022-10-09T05:44:03.067Z,4.70
2022-10-09T05:48:04.897Z,5.35
2022-10-09T05:52:06.468Z,6.32
2022-10-09T05:56:22.099Z,4.78
2022-10-09T06:00:23.836Z,5.18
2022-10-09T06:04:26.349Z,4.80
2022-10-09T06:08:34.151Z,4.60
2022-10-09T06:12:35.797Z,5.05
2022-10-09T06:16:42.186Z,6.80
2022-10-09T06:20:54.250Z,5.47
2022-10-09T06:24:56.053Z,6.30
2022-10-09T06:28:59.216Z,6.75
2022-10-09T06:33:00.636Z,6.43
2022-10-09T06:37:02.325Z,6.80
2022-10-09T06:41:06.166Z,6.10
2022-10-09T06:45:08.348Z,6.68
2022-10-09T06:49:11.023Z,6.18
2022-10-09T06:53:12.824Z,5.45
2022-10-09T06:57:14.269Z,4.07
2022-10-09T07:01:21.408Z,4.57
2022-10-09T07:05:22.882Z,4.78
2022-10-09T07:09:24.340Z,5.32
2022-10-09T07:13:25.890Z,6.05
2022-10-09T07:17:28.062Z,5.45
2022-10-09T07:21:30.270Z,4.80
2022-10-09T07:25:31.673Z,5.00
2022-10-09T07:29:33.240Z,5.25
2022-10-09T07:33:34.826Z,5.22
2022-10-09T07:37:36.237Z,5.20
2022-10-09T07:41:37.803Z,6.03
2022-10-09T07:45:39.203Z,5.57
2022-10-09T07:49:40.721Z,5.88
2022-10-09T07:53:42.507Z,5.57
2022-10-09T07:57:44.591Z,5.60
2022-10-09T08:01:46.495Z,5.30
2022-10-09T08:05:55.317Z,5.70
2022-10-09T08:09:56.867Z,5.28
2022-10-09T08:13:58.482Z,5.35
2022-10-09T08:18:00.110Z,5.85
2022-10-09T08:22:03.560Z,4.97
2022-10-09T08:26:13.018Z,4.55
2022-10-09T08:30:14.467Z,4.95
2022-10-09T08:34:16.076Z,5.00
2022-10-09T08:38:45.039Z,3.63
2022-10-09T08:42:44.526Z,4.22
2022-10-09T08:46:51.858Z,3.95
2022-10-09T08:50:54.290Z,4.57
2022-10-09T08:54:58.340Z,4.20
2022-10-09T08:58:59.933Z,3.90
2022-10-09T09:03:23.259Z,3.65
2022-10-09T09:07:31.588Z,2.92
2022-10-09T09:11:42.319Z,3.03
2022-10-09T09:16:02.180Z,4.40
2022-10-09T09:24:47.962Z,3.05
2022-10-09T09:28:53.751Z,2.53
2022-10-09T09:33:03.439Z,3.30
2022-10-09T09:37:05.040Z,3.08
2022-10-09T09:41:06.439Z,3.47
2022-10-09T09:45:22.504Z,3.05
2022-10-09T09:49:27.733Z,2.95
2022-10-09T09:53:37.243Z,1.95
2022-10-09T09:57:42.964Z,1.95
2022-10-09T10:01:44.449Z,2.30
2022-10-09T10:05:45.971Z,2.22
2022-10-09T10:09:47.538Z,2.10
2022-10-09T10:13:49.533Z,2.03
2022-10-09T10:18:00.194Z,2.28
2022-10-09T10:22:04.417Z,1.90
2022-10-09T10:26:13.531Z,1.60
2022-10-09T10:30:17.161Z,2.10
2022-10-09T10:34:42.041Z,1.70
2022-10-09T10:38:53.529Z,1.42
2022-10-09T10:43:49.982Z,1.70
2022-10-09T10:52:56.668Z,1.63
2022-10-09T11:02:42.135Z,1.30
2022-10-09T11:07:21.867Z,1.20
2022-10-09T11:21:35.666Z,1.08
2022-10-09T11:26:01.646Z,1.40
2022-10-09T11:30:08.731Z,1.48
2022-10-09T11:34:17.318Z,1.55
2022-10-09T11:38:51.805Z,1.55
2022-10-09T11:43:26.355Z,1.40
2022-10-09T11:47:54.374Z,1.50
2022-10-09T11:52:07.843Z,1.20
2022-10-09T11:56:22.203Z,1.15
2022-10-09T12:00:36.114Z,1.23
2022-10-09T12:04:53.855Z,1.30
2022-10-09T12:08:55.952Z,1.42
2022-10-09T12:13:06.395Z,1.38
2022-10-09T12:17:22.920Z,1.10
2022-10-09T12:21:28.416Z,1.33
2022-10-09T12:25:41.074Z,1.00
2022-10-09T12:29:48.638Z,1.52
2022-10-09T12:33:57.420Z,1.38
2022-10-09T12:37:59.386Z,1.27
2022-10-09T12:42:00.876Z,2.33
2022-10-09T12:46:02.662Z,1.10
2022-10-09T12:50:24.601Z,1.17
2022-10-09T12:54:28.118Z,1.33
2022-10-09T12:58:33.382Z,1.58
2022-10-09T13:02:35.355Z,1.48
2022-10-09T13:06:38.254Z,1.20
2022-10-09T13:10:39.761Z,1.33
2022-10-09T13:14:46.988Z,1.38
2022-10-09T13:19:00.939Z,1.10
2022-10-09T13:23:04.759Z,1.23
2022-10-09T13:27:06.190Z,1.35
2022-10-09T13:31:09.599Z,1.40
2022-10-09T13:35:11.277Z,1.20
2022-10-09T13:39:17.812Z,1.60
2022-10-09T13:43:26.953Z,1.25
2022-10-09T13:47:31.359Z,1.70
2022-10-09T13:51:32.922Z,1.20
2022-10-09T13:55:34.988Z,1.35
2022-10-09T13:59:38.303Z,1.50
2022-10-09T14:03:40.772Z,1.38
2022-10-09T14:07:42.695Z,1.58
2022-10-09T14:11:44.295Z,1.75
2022-10-09T14:15:45.792Z,1.55
2022-10-09T14:19:47.333Z,1.35
2022-10-09T14:23:52.639Z,1.45
2022-10-09T14:27:54.284Z,1.42
2022-10-09T14:31:55.833Z,1.77
2022-10-09T14:35:57.444Z,1.80
2022-10-09T14:39:58.864Z,1.38
2022-10-09T14:44:00.944Z,2.03
2022-10-09T14:48:02.461Z,1.73
2022-10-09T14:52:03.904Z,1.55
2022-10-09T14:56:08.205Z,1.50
2022-10-09T15:00:11.984Z,1.52
2022-10-09T15:04:15.223Z,2.05
2022-10-09T15:08:16.883Z,1.70
2022-10-09T15:12:18.460Z,2.17
2022-10-09T15:16:20.897Z,2.00
2022-10-09T15:20:22.542Z,1.92
2022-10-09T15:24:24.103Z,2.53
2022-10-09T15:28:25.846Z,2.40
2022-10-09T15:32:27.487Z,2.10
2022-10-09T15:36:30.903Z,2.25
2022-10-09T15:40:42.118Z,2.30
2022-10-09T15:44:43.546Z,2.20
2022-10-09T15:48:45.201Z,2.22
2022-10-09T15:52:49.460Z,2.42
2022-10-09T15:56:51.369Z,3.00
2022-10-09T16:00:54.537Z,2.28
2022-10-09T16:04:55.926Z,3.47
2022-10-09T16:08:58.673Z,2.13
2022-10-09T16:13:00.707Z,2.20
2022-10-09T16:17:06.546Z,2.47
2022-10-09T16:21:16.325Z,2.40
2022-10-09T16:25:17.920Z,2.97
2022-10-09T16:29:19.967Z,3.55
2022-10-09T16:33:22.144Z,3.38
2022-10-09T16:37:23.621Z,2.88
2022-10-09T16:41:25.911Z,2.88
2022-10-09T16:45:28.502Z,3.20
2022-10-09T16:49:30.615Z,3.75
2022-10-09T16:53:33.689Z,3.72
2022-10-09T16:57:35.678Z,5.03
2022-10-09T17:01:38.138Z,4.03
2022-10-09T17:05:39.609Z,3.08
2022-10-09T17:09:41.285Z,3.90
2022-10-09T17:13:43.722Z,4.50
2022-10-09T17:17:45.359Z,3.83
2022-10-09T17:21:47.068Z,4.18
2022-10-09T17:25:48.577Z,4.65
2022-10-09T17:29:50.630Z,4.85
2022-10-09T17:33:58.683Z,4.18
2022-10-09T17:38:00.306Z,4.15
2022-10-09T17:42:01.811Z,4.10
2022-10-09T17:46:03.620Z,4.78
2022-10-09T17:50:07.019Z,4.75
2022-10-09T17:54:15.332Z,4.68
2022-10-09T17:58:17.257Z,3.72
2022-10-09T18:02:18.794Z,4.30
2022-10-09T18:06:23.898Z,4.35
2022-10-09T18:10:25.339Z,4.22
2022-10-09T18:14:27.075Z,4.70
2022-10-09T18:18:29.494Z,4.88
2022-10-09T18:22:31.118Z,5.85
2022-10-09T18:26:33.054Z,5.10
2022-10-09T18:30:40.751Z,5.10
2022-10-09T18:34:46.244Z,6.88
2022-10-09T18:38:54.040Z,6.20
2022-10-09T18:42:55.481Z,5.93
2022-10-09T18:46:58.931Z,6.75
2022-10-09T18:51:04.056Z,6.68
2022-10-09T18:55:07.036Z,6.93
2022-10-09T18:59:11.704Z,6.63
2022-10-09T19:03:13.262Z,6.53
2022-10-09T19:07:14.847Z,6.28
2022-10-09T19:11:16.403Z,6.70
2022-10-09T19:15:19.005Z,7.10
2022-10-09T19:19:20.730Z,8.32
2022-10-09T19:23:22.322Z,7.78
2022-10-09T19:27:26.684Z,6.75
2022-10-09T19:31:28.484Z,7.18
2022-10-09T19:35:30.399Z,6.97
2022-10-09T19:39:32.480Z,6.97
2022-10-09T19:43:34.463Z,6.75
2022-10-09T19:47:36.073Z,7.68
2022-10-09T19:51:37.840Z,8.50
2022-10-09T19:55:39.323Z,7.05
2022-10-09T19:59:41.281Z,7.30
2022-10-09T20:03:43.124Z,6.85
2022-10-09T20:07:44.774Z,6.60
2022-10-09T20:11:46.181Z,5.47
2022-10-09T20:15:47.813Z,5.60
2022-10-09T20:19:49.506Z,5.82
2022-10-09T20:23:51.435Z,6.10
2022-10-09T20:27:52.917Z,6.50
2022-10-09T20:31:55.434Z,6.82
2022-10-09T20:35:56.971Z,6.38
2022-10-09T20:39:58.516Z,6.28
2022-10-09T20:44:05.901Z,6.60
2022-10-09T20:48:07.870Z,6.20
2022-10-09T20:52:10.083Z,6.43
2022-10-09T20:56:14.333Z,5.97
2022-10-09T21:00:17.333Z,6.15
2022-10-09T21:04:18.958Z,5.88
2022-10-09T21:08:20.733Z,6.32
2022-10-09T21:12:22.808Z,6.82
2022-10-09T21:16:25.333Z,7.28
2022-10-09T21:20:26.932Z,7.80
2022-10-09T21:24:29.412Z,7.18
2022-10-09T21:28:31.488Z,6.60
2022-10-09T21:32:33.156Z,6.57
2022-10-09T21:37:08.990Z,6.60
2022-10-09T21:41:08.255Z,7.57
2022-10-09T21:45:10.306Z,6.40
2022-10-09T21:49:19.891Z,6.65
2022-10-09T21:53:21.470Z,6.47
2022-10-09T21:57:23.050Z,6.47
2022-10-09T22:01:25.017Z,6.43
2022-10-09T22:05:26.597Z,5.90
2022-10-09T22:09:28.093Z,7.40
2022-10-09T22:13:29.552Z,6.95
2022-10-09T22:17:30.985Z,7.45
2022-10-09T22:21:32.933Z,6.72
2022-10-09T22:25:35.091Z,6.60
2022-10-09T22:29:38.499Z,5.65
2022-10-09T22:33:40.653Z,6.40
2022-10-09T22:37:42.067Z,6.35
2022-10-09T22:41:43.515Z,6.78
2022-10-09T22:45:44.896Z,6.38
2022-10-09T22:49:46.625Z,6.18
2022-10-09T22:53:48.686Z,6.07
2022-10-09T22:57:50.103Z,5.95
2022-10-09T23:01:54.503Z,6.53
2022-10-09T23:06:05.207Z,5.70
2022-10-09T23:10:07.551Z,7.00
2022-10-09T23:14:11.150Z,5.97
2022-10-09T23:18:12.763Z,6.10
2022-10-09T23:22:14.207Z,5.65
2022-10-09T23:26:22.077Z,5.97
2022-10-09T23:34:25.184Z,6.30
2022-10-09T23:38:26.549Z,6.10
2022-10-09T23:42:28.153Z,5.05
2022-10-09T23:46:32.910Z,5.25
2022-10-09T23:50:34.723Z,5.25
2022-10-09T23:54:36.550Z,6.00
2022-10-09T23:58:37.970Z,6.00
